Longmont, Colorado
Current Conditions -  °F | °C
As of 1:55 PM on Sunday 21 Dec 2014 (Local Time) from KLMO Reporting Station
Clear Clear  
Wind Chill: 54°   Ceiling: Unl
Heat Index: 54°   Visibility: 10mi
Dew Point: 25°   Wind: 17mph
Humidity: 33%   Direction: 270°W
Pressure: 29.53"   Gusts: 22mph
Location:  40.16°N, 105.1°W
Report Text: KLMO 212055Z AUTO 27015G19KT 10SM CLR 12/M04 A2953 RMK AO2 T01221037
Loading
Personal Weather Stations






























Interactive Weather Map New forecast layout! Learn more

10-Day Weather Forecast

Advertisements
Track Severe Weather on mobile